Time;durP1;ratioP1;P1;durP2;ratioP2;P2;SDS_P1;SDS_P2;PMS_P1;PMS_P2;Temp;Humidity;BMP_temperature;BMP_pressure;BME280_temperature;BME280_humidity;BME280_pressure;Samples;Min_cycle;Max_cycle;Signal;HPM_P1;HPM_P2
2021/05/23 00:02:18;;;;;;;5.32;2.92;;;;;;;;;;4963987;28;20540;-84
2021/05/23 00:04:45;;;;;;;5.78;2.80;;;;;;;;;;4964828;28;20038;-86
2021/05/23 00:07:13;;;;;;;5.50;3.13;;;;;;;;;;4965677;28;20078;-84
2021/05/23 00:09:40;;;;;;;2.83;2.45;;;;;;;;;;4978676;28;20039;-83
2021/05/23 00:12:07;;;;;;;6.82;3.00;;;;;;;;;;4982739;28;20031;-82
2021/05/23 00:14:33;;;;;;;7.57;2.80;;;;;;;;;;4981287;28;20054;-80
2021/05/23 00:17:00;;;;;;;4.97;2.60;;;;;;;;;;4981947;28;20026;-78
2021/05/23 00:19:26;;;;;;;3.33;2.60;;;;;;;;;;4998408;28;20573;-76
2021/05/23 00:21:52;;;;;;;6.00;2.97;;;;;;;;;;4991382;28;20027;-81
2021/05/23 00:24:18;;;;;;;5.25;3.00;;;;;;;;;;4982296;28;20034;-81
2021/05/23 00:26:44;;;;;;;3.60;2.70;;;;;;;;;;4988938;28;20110;-81
2021/05/23 00:29:10;;;;;;;4.93;2.60;;;;;;;;;;4980668;28;20031;-79
2021/05/23 00:31:36;;;;;;;5.22;2.50;;;;;;;;;;4981795;28;20031;-80
2021/05/23 00:34:03;;;;;;;3.78;2.40;;;;;;;;;;4986680;28;20030;-79
2021/05/23 00:36:29;;;;;;;6.03;2.45;;;;;;;;;;4986467;28;20082;-80
2021/05/23 00:38:55;;;;;;;6.20;2.28;;;;;;;;;;4995258;28;20497;-80
2021/05/23 00:41:21;;;;;;;4.63;2.60;;;;;;;;;;4986120;28;20034;-78
2021/05/23 00:43:50;;;;;;;4.75;2.83;;;;;;;;;;4977000;28;20022;-82
2021/05/23 00:46:16;;;;;;;5.43;2.70;;;;;;;;;;4978552;28;20039;-82
2021/05/23 00:48:42;;;;;;;3.08;2.47;;;;;;;;;;4992147;28;20403;-77
2021/05/23 00:51:08;;;;;;;4.07;2.45;;;;;;;;;;4991647;28;20035;-81
2021/05/23 00:53:34;;;;;;;5.07;2.33;;;;;;;;;;4998620;28;20019;-77
2021/05/23 00:56:01;;;;;;;4.22;2.58;;;;;;;;;;4992039;28;20473;-81
2021/05/23 00:58:27;;;;;;;3.50;2.30;;;;;;;;;;4994665;28;20034;-77
2021/05/23 01:00:56;;;;;;;5.50;2.40;;;;;;;;;;4993701;28;20034;-79
2021/05/23 01:03:29;;;;;;;4.63;2.40;;;;;;;;;;4998842;28;20039;-73
2021/05/23 01:06:06;;;;;;;3.45;2.40;;;;;;;;;;4998085;28;20022;-77
2021/05/23 01:08:35;;;;;;;3.78;2.40;;;;;;;;;;4989766;28;20452;-76
2021/05/23 01:11:03;;;;;;;4.63;2.40;;;;;;;;;;4974018;28;20542;-77
2021/05/23 01:13:39;;;;;;;4.93;2.10;;;;;;;;;;4980811;28;20453;-81
2021/05/23 01:16:09;;;;;;;4.43;2.45;;;;;;;;;;4986646;28;20535;-79
2021/05/23 01:18:54;;;;;;;6.30;2.60;;;;;;;;;;4985587;28;20121;-81
2021/05/23 01:21:22;;;;;;;13.95;2.40;;;;;;;;;;4997505;28;20538;-80
2021/05/23 01:24:08;;;;;;;11.07;2.50;;;;;;;;;;5010769;28;20086;-80
2021/05/23 01:26:38;;;;;;;10.38;2.50;;;;;;;;;;4965578;28;20030;-82
2021/05/23 01:29:09;;;;;;;5.22;2.22;;;;;;;;;;4974878;28;20060;-82
2021/05/23 01:31:36;;;;;;;3.38;2.17;;;;;;;;;;4977942;28;20400;-82
2021/05/23 01:34:03;;;;;;;5.40;2.42;;;;;;;;;;4981520;28;20365;-81
2021/05/23 01:36:35;;;;;;;3.67;2.20;;;;;;;;;;4988960;28;20030;-81
2021/05/23 01:39:03;;;;;;;4.35;2.17;;;;;;;;;;4979052;28;20065;-82
2021/05/23 01:41:30;;;;;;;5.45;2.50;;;;;;;;;;4981552;28;20035;-82
2021/05/23 01:43:57;;;;;;;3.63;2.20;;;;;;;;;;4979544;28;20035;-80
2021/05/23 01:46:24;;;;;;;4.38;2.28;;;;;;;;;;4976855;28;20023;-81
2021/05/23 01:48:50;;;;;;;5.70;2.50;;;;;;;;;;4973498;28;20026;-74
2021/05/23 01:51:16;;;;;;;6.22;2.42;;;;;;;;;;4976786;28;20125;-81
2021/05/23 01:53:42;;;;;;;6.43;2.28;;;;;;;;;;4981540;28;20034;-78
2021/05/23 01:56:11;;;;;;;3.80;2.40;;;;;;;;;;4981823;28;20054;-78
2021/05/23 01:58:38;;;;;;;6.78;2.25;;;;;;;;;;4982555;28;20026;-77
2021/05/23 02:01:06;;;;;;;3.88;2.42;;;;;;;;;;4959092;28;20384;-78
2021/05/23 02:03:33;;;;;;;5.28;2.40;;;;;;;;;;4978947;28;20019;-81
2021/05/23 02:06:00;;;;;;;3.92;2.35;;;;;;;;;;4978382;28;20101;-81
2021/05/23 02:08:27;;;;;;;5.88;2.47;;;;;;;;;;4978898;28;20184;-78
2021/05/23 02:10:55;;;;;;;4.22;2.35;;;;;;;;;;4964224;29;20035;-79
2021/05/23 02:13:22;;;;;;;4.80;2.47;;;;;;;;;;4965665;28;20031;-81
2021/05/23 02:15:48;;;;;;;3.17;2.10;;;;;;;;;;4986787;28;20027;-79
2021/05/23 02:18:15;;;;;;;3.95;2.42;;;;;;;;;;4964148;28;20125;-77
2021/05/23 02:20:41;;;;;;;3.63;2.20;;;;;;;;;;4980329;28;20031;-78
2021/05/23 02:23:11;;;;;;;6.03;2.50;;;;;;;;;;4993677;28;20034;-77
2021/05/23 02:25:38;;;;;;;6.53;2.65;;;;;;;;;;4985827;28;20027;-75
2021/05/23 02:28:05;;;;;;;4.18;2.28;;;;;;;;;;4984968;28;20086;-79
2021/05/23 02:30:39;;;;;;;7.07;2.65;;;;;;;;;;4986877;28;20031;-71
2021/05/23 02:33:08;;;;;;;3.55;2.40;;;;;;;;;;4998466;28;20479;-76
2021/05/23 02:35:36;;;;;;;4.47;2.25;;;;;;;;;;4991995;28;20035;-79
2021/05/23 02:38:03;;;;;;;4.97;2.25;;;;;;;;;;4985638;28;20023;-79
2021/05/23 02:40:30;;;;;;;6.05;2.40;;;;;;;;;;4986867;28;20038;-79
2021/05/23 02:42:59;;;;;;;6.88;2.50;;;;;;;;;;4988833;28;20022;-74
2021/05/23 02:45:26;;;;;;;4.25;2.47;;;;;;;;;;4999291;28;20021;-78
2021/05/23 02:47:52;;;;;;;6.25;2.45;;;;;;;;;;4979094;28;20023;-74
2021/05/23 02:50:20;;;;;;;6.38;2.42;;;;;;;;;;4983960;28;20050;-77
2021/05/23 02:52:46;;;;;;;6.25;2.40;;;;;;;;;;4998798;28;20026;-75
2021/05/23 02:55:13;;;;;;;5.68;2.45;;;;;;;;;;4998895;28;20026;-75
2021/05/23 02:57:41;;;;;;;4.78;2.30;;;;;;;;;;4998256;28;20034;-76
2021/05/23 03:00:09;;;;;;;6.43;2.53;;;;;;;;;;5000811;28;20038;-73
2021/05/23 03:02:35;;;;;;;4.38;2.42;;;;;;;;;;5018042;28;20022;-77
2021/05/23 03:05:01;;;;;;;3.55;2.30;;;;;;;;;;5016964;28;20241;-78
2021/05/23 03:07:27;;;;;;;5.22;2.50;;;;;;;;;;4988841;28;20066;-78
2021/05/23 03:09:54;;;;;;;6.00;2.35;;;;;;;;;;4995001;28;20014;-75
2021/05/23 03:12:20;;;;;;;5.00;2.50;;;;;;;;;;4996504;28;20118;-78
2021/05/23 03:14:46;;;;;;;5.60;2.95;;;;;;;;;;4997412;28;20038;-77
2021/05/23 03:17:12;;;;;;;4.40;2.20;;;;;;;;;;4995120;28;20033;-76
2021/05/23 03:19:43;;;;;;;5.95;2.70;;;;;;;;;;4995176;28;20026;-77
2021/05/23 03:22:09;;;;;;;4.30;2.58;;;;;;;;;;4997267;28;20067;-78
2021/05/23 03:24:37;;;;;;;8.07;2.78;;;;;;;;;;4997758;28;20034;-77
2021/05/23 03:27:03;;;;;;;4.30;2.10;;;;;;;;;;4998649;28;20015;-76
2021/05/23 03:29:29;;;;;;;6.85;2.58;;;;;;;;;;4997815;28;20054;-76
2021/05/23 03:31:55;;;;;;;4.50;2.20;;;;;;;;;;5001810;28;20038;-77
2021/05/23 03:34:22;;;;;;;5.28;2.28;;;;;;;;;;5002581;28;20019;-79
2021/05/23 03:36:48;;;;;;;5.03;2.20;;;;;;;;;;4997414;28;20035;-77
2021/05/23 03:39:14;;;;;;;2.17;1.80;;;;;;;;;;4997401;28;20031;-76
2021/05/23 03:41:40;;;;;;;3.90;2.10;;;;;;;;;;4999823;28;20046;-77
2021/05/23 03:44:09;;;;;;;4.18;2.05;;;;;;;;;;4996351;28;20026;-76
2021/05/23 03:46:35;;;;;;;10.52;2.42;;;;;;;;;;4992821;28;20026;-74
2021/05/23 03:49:01;;;;;;;5.45;2.33;;;;;;;;;;4994341;28;20482;-78
2021/05/23 03:51:29;;;;;;;3.47;2.00;;;;;;;;;;4990781;28;20372;-78
2021/05/23 03:53:57;;;;;;;5.93;2.30;;;;;;;;;;4989525;28;20034;-77
2021/05/23 03:56:25;;;;;;;4.68;2.53;;;;;;;;;;4989715;28;20142;-77
2021/05/23 03:58:51;;;;;;;6.10;2.50;;;;;;;;;;4990290;28;20040;-79
2021/05/23 04:01:17;;;;;;;5.72;2.13;;;;;;;;;;4986273;28;20035;-78
2021/05/23 04:03:44;;;;;;;9.90;2.97;;;;;;;;;;4985587;28;20045;-77
2021/05/23 04:06:10;;;;;;;5.82;2.90;;;;;;;;;;4979394;28;20039;-79
2021/05/23 04:08:36;;;;;;;5.45;2.72;;;;;;;;;;4983747;28;20043;-81
2021/05/23 04:11:12;;;;;;;7.45;2.90;;;;;;;;;;4976405;28;20031;-77
2021/05/23 04:13:40;;;;;;;3.80;2.22;;;;;;;;;;4961451;28;20027;-81
2021/05/23 04:16:07;;;;;;;6.18;2.50;;;;;;;;;;4972778;28;20398;-82
2021/05/23 04:18:33;;;;;;;6.00;2.35;;;;;;;;;;4978814;28;20049;-82
2021/05/23 04:20:59;;;;;;;5.38;2.75;;;;;;;;;;4989047;28;20491;-76
2021/05/23 04:23:25;;;;;;;7.78;2.90;;;;;;;;;;5005298;28;20010;-76
2021/05/23 04:25:52;;;;;;;6.80;2.95;;;;;;;;;;5017554;28;20030;-78
2021/05/23 04:28:18;;;;;;;5.90;2.60;;;;;;;;;;4989769;28;20022;-77
2021/05/23 04:30:44;;;;;;;7.00;2.80;;;;;;;;;;5005680;28;20392;-72
2021/05/23 04:33:10;;;;;;;7.38;3.20;;;;;;;;;;4993614;28;20034;-72
2021/05/23 04:35:37;;;;;;;14.73;3.97;;;;;;;;;;4988141;28;20026;-81
2021/05/23 04:38:04;;;;;;;15.07;4.22;;;;;;;;;;4985414;28;20113;-83
2021/05/23 04:40:30;;;;;;;10.15;3.20;;;;;;;;;;4989536;28;20031;-82
2021/05/23 04:42:56;;;;;;;7.88;3.20;;;;;;;;;;4986191;28;20023;-85
2021/05/23 04:45:22;;;;;;;5.88;3.10;;;;;;;;;;4973386;28;20097;-80
2021/05/23 04:48:10;;;;;;;5.15;3.00;;;;;;;;;;4977701;28;20114;-84
2021/05/23 04:50:36;;;;;;;6.55;3.00;;;;;;;;;;4984298;28;20385;-83
2021/05/23 04:53:04;;;;;;;12.20;3.25;;;;;;;;;;4960441;28;20035;-79
2021/05/23 04:55:32;;;;;;;5.55;3.38;;;;;;;;;;4972505;28;20033;-78
2021/05/23 04:57:58;;;;;;;6.88;3.00;;;;;;;;;;4974641;28;20023;-86
2021/05/23 05:00:24;;;;;;;7.30;3.10;;;;;;;;;;4974971;28;20033;-84
2021/05/23 05:02:51;;;;;;;6.20;2.90;;;;;;;;;;4972700;28;20107;-79
2021/05/23 05:05:19;;;;;;;6.60;3.05;;;;;;;;;;4974265;28;20027;-79
2021/05/23 05:07:45;;;;;;;7.65;3.20;;;;;;;;;;4978532;28;20049;-84
2021/05/23 05:10:11;;;;;;;7.10;3.35;;;;;;;;;;4976563;28;20038;-76
2021/05/23 05:12:38;;;;;;;8.43;3.60;;;;;;;;;;4965679;28;20039;-91
2021/05/23 05:15:05;;;;;;;5.97;2.70;;;;;;;;;;4976255;28;20030;-86
2021/05/23 05:17:31;;;;;;;11.35;3.33;;;;;;;;;;4976326;28;20051;-73
2021/05/23 05:19:57;;;;;;;7.90;3.00;;;;;;;;;;4979107;28;20365;-86
2021/05/23 05:22:24;;;;;;;6.80;2.90;;;;;;;;;;4974126;28;20153;-89
2021/05/23 05:24:50;;;;;;;9.70;3.25;;;;;;;;;;4983631;28;20110;-84
2021/05/23 05:27:19;;;;;;;6.72;3.08;;;;;;;;;;4980645;28;20034;-92
2021/05/23 05:29:47;;;;;;;10.00;4.10;;;;;;;;;;4977974;28;20067;-88
2021/05/23 05:32:13;;;;;;;4.85;2.97;;;;;;;;;;4974985;28;20539;-90
2021/05/23 05:34:39;;;;;;;5.45;3.10;;;;;;;;;;4973696;28;20022;-90
2021/05/23 05:37:05;;;;;;;8.25;3.42;;;;;;;;;;4983597;28;20035;-88
2021/05/23 05:39:31;;;;;;;7.38;3.80;;;;;;;;;;4961625;28;20019;-88
2021/05/23 05:41:59;;;;;;;10.32;3.80;;;;;;;;;;4990268;28;20026;-87
2021/05/23 05:44:25;;;;;;;7.70;3.50;;;;;;;;;;4984931;28;20030;-89
2021/05/23 05:46:51;;;;;;;5.47;3.30;;;;;;;;;;4990134;28;20033;-73
2021/05/23 05:49:18;;;;;;;6.18;2.83;;;;;;;;;;4983995;28;20066;-73
2021/05/23 05:51:44;;;;;;;9.57;3.40;;;;;;;;;;4980925;28;20042;-82
2021/05/23 05:54:10;;;;;;;15.50;3.58;;;;;;;;;;4978913;28;20098;-92
2021/05/23 05:56:38;;;;;;;8.10;2.95;;;;;;;;;;4981059;28;20480;-86
2021/05/23 05:59:04;;;;;;;4.72;2.72;;;;;;;;;;4975583;28;20039;-85
2021/05/23 06:01:31;;;;;;;3.17;2.28;;;;;;;;;;4973416;28;21678;-87
2021/05/23 06:03:57;;;;;;;4.85;2.17;;;;;;;;;;4972627;28;20026;-83
2021/05/23 06:06:24;;;;;;;4.53;2.08;;;;;;;;;;4975728;28;20023;-78
2021/05/23 06:08:50;;;;;;;4.10;2.20;;;;;;;;;;4981096;28;20127;-82
2021/05/23 06:11:16;;;;;;;4.75;2.20;;;;;;;;;;4975107;28;20455;-81
2021/05/23 06:13:42;;;;;;;3.05;2.30;;;;;;;;;;4973222;28;20054;-83
2021/05/23 06:16:08;;;;;;;3.30;2.20;;;;;;;;;;4979155;28;20034;-86
2021/05/23 06:18:36;;;;;;;2.58;1.98;;;;;;;;;;4975026;28;20026;-72
2021/05/23 06:21:02;;;;;;;4.13;2.40;;;;;;;;;;4963955;28;20125;-78
2021/05/23 06:23:29;;;;;;;3.50;2.40;;;;;;;;;;4973240;28;20432;-82
2021/05/23 06:25:55;;;;;;;6.15;2.40;;;;;;;;;;4968774;28;20027;-85
2021/05/23 06:28:21;;;;;;;9.55;2.35;;;;;;;;;;4971415;28;20026;-85
2021/05/23 06:30:47;;;;;;;3.55;2.20;;;;;;;;;;4974609;28;20050;-83
2021/05/23 06:33:13;;;;;;;3.05;2.10;;;;;;;;;;4960448;28;20027;-82
2021/05/23 06:35:39;;;;;;;7.22;2.28;;;;;;;;;;4965228;28;20019;-80
2021/05/23 06:38:05;;;;;;;6.72;2.55;;;;;;;;;;4966453;28;20065;-83
2021/05/23 06:40:31;;;;;;;3.60;2.10;;;;;;;;;;4966772;28;20031;-80
2021/05/23 06:42:57;;;;;;;3.17;2.10;;;;;;;;;;4966258;28;20026;-84
2021/05/23 06:45:23;;;;;;;3.90;2.10;;;;;;;;;;4969913;28;20027;-80
2021/05/23 06:47:49;;;;;;;6.78;2.28;;;;;;;;;;4968792;28;20049;-85
2021/05/23 06:50:16;;;;;;;7.18;1.90;;;;;;;;;;4976285;28;20026;-83
2021/05/23 06:52:42;;;;;;;3.72;2.35;;;;;;;;;;4970310;28;20031;-83
2021/05/23 06:55:09;;;;;;;4.28;2.03;;;;;;;;;;4973464;28;20074;-74
2021/05/23 06:57:35;;;;;;;4.63;2.25;;;;;;;;;;4969922;28;20084;-92
2021/05/23 07:00:02;;;;;;;5.55;2.20;;;;;;;;;;4967887;28;20035;-82
2021/05/23 07:02:28;;;;;;;3.25;2.00;;;;;;;;;;4955036;28;20507;-83
2021/05/23 07:04:54;;;;;;;4.40;2.30;;;;;;;;;;4968558;28;20257;-80
2021/05/23 07:07:20;;;;;;;5.00;2.15;;;;;;;;;;4975403;28;20050;-87
2021/05/23 07:09:46;;;;;;;3.47;2.03;;;;;;;;;;4971836;28;20113;-83
2021/05/23 07:12:12;;;;;;;4.38;2.20;;;;;;;;;;4971746;28;20039;-82
2021/05/23 07:14:39;;;;;;;4.72;2.35;;;;;;;;;;4975119;28;20524;-82
2021/05/23 07:17:05;;;;;;;3.90;2.38;;;;;;;;;;4979590;28;20037;-85
2021/05/23 07:19:31;;;;;;;5.47;2.05;;;;;;;;;;4968264;28;20389;-84
2021/05/23 07:21:57;;;;;;;5.63;2.10;;;;;;;;;;4981764;28;20038;-83
2021/05/23 07:24:23;;;;;;;6.80;2.45;;;;;;;;;;4975478;28;20493;-84
2021/05/23 07:26:49;;;;;;;5.43;2.03;;;;;;;;;;4973187;28;20105;-85
2021/05/23 07:29:15;;;;;;;5.20;2.40;;;;;;;;;;4980027;28;20077;-80
2021/05/23 07:31:41;;;;;;;4.35;2.22;;;;;;;;;;4971458;28;20038;-85
2021/05/23 07:34:07;;;;;;;5.25;2.25;;;;;;;;;;4975390;28;20397;-75
2021/05/23 07:36:33;;;;;;;4.60;2.33;;;;;;;;;;4967372;28;20123;-78
2021/05/23 07:39:00;;;;;;;7.28;2.83;;;;;;;;;;4973784;28;20487;-72
2021/05/23 07:41:26;;;;;;;7.97;2.88;;;;;;;;;;4975389;28;20027;-73
2021/05/23 07:43:52;;;;;;;11.23;3.03;;;;;;;;;;4974060;28;20066;-78
2021/05/23 07:46:18;;;;;;;7.38;2.45;;;;;;;;;;4969514;28;20480;-81
2021/05/23 07:48:44;;;;;;;5.20;2.33;;;;;;;;;;4970349;28;20039;-81
2021/05/23 07:51:10;;;;;;;5.38;2.25;;;;;;;;;;4967133;28;20062;-80
2021/05/23 07:53:37;;;;;;;4.63;2.30;;;;;;;;;;4975980;28;20026;-80
2021/05/23 07:56:03;;;;;;;6.45;2.40;;;;;;;;;;4973791;28;20018;-79
2021/05/23 07:58:29;;;;;;;6.75;2.22;;;;;;;;;;4974272;28;20053;-81
2021/05/23 08:00:55;;;;;;;7.20;2.30;;;;;;;;;;4973467;28;20531;-81
2021/05/23 08:03:21;;;;;;;8.18;2.50;;;;;;;;;;4982239;28;20034;-80
2021/05/23 08:05:47;;;;;;;3.70;2.20;;;;;;;;;;4976644;28;20031;-78
2021/05/23 08:08:13;;;;;;;7.10;2.40;;;;;;;;;;4980778;28;20046;-76
2021/05/23 08:10:40;;;;;;;5.70;2.20;;;;;;;;;;4976443;28;20050;-79
2021/05/23 08:13:07;;;;;;;10.27;2.95;;;;;;;;;;4984587;28;20026;-78
2021/05/23 08:15:33;;;;;;;7.90;2.50;;;;;;;;;;4979837;28;20105;-80
2021/05/23 08:18:00;;;;;;;5.25;2.30;;;;;;;;;;4976233;28;20073;-78
2021/05/23 08:20:26;;;;;;;6.88;2.22;;;;;;;;;;4980060;28;20472;-76
2021/05/23 08:22:52;;;;;;;5.65;2.45;;;;;;;;;;4990672;28;20104;-80
2021/05/23 08:25:18;;;;;;;5.25;2.65;;;;;;;;;;4984083;28;20082;-80
2021/05/23 08:27:45;;;;;;;4.05;2.60;;;;;;;;;;4983151;28;20053;-79
2021/05/23 08:30:12;;;;;;;4.57;2.40;;;;;;;;;;4992922;28;20019;-79
2021/05/23 08:32:38;;;;;;;21.40;3.70;;;;;;;;;;4985203;28;20117;-82
2021/05/23 08:35:06;;;;;;;5.00;2.03;;;;;;;;;;4984499;28;20027;-77
2021/05/23 08:37:32;;;;;;;3.58;2.50;;;;;;;;;;4983543;28;20026;-85
2021/05/23 08:39:58;;;;;;;5.90;2.33;;;;;;;;;;4974548;28;20039;-76
2021/05/23 08:42:24;;;;;;;3.72;2.30;;;;;;;;;;4980368;28;20049;-80
2021/05/23 08:44:50;;;;;;;14.20;2.75;;;;;;;;;;4980639;28;20109;-73
2021/05/23 08:47:17;;;;;;;3.33;2.03;;;;;;;;;;4986153;28;20110;-80
2021/05/23 08:49:44;;;;;;;14.98;2.67;;;;;;;;;;4977743;28;20023;-78
2021/05/23 08:52:10;;;;;;;5.25;2.30;;;;;;;;;;4980718;28;20057;-78
2021/05/23 08:54:41;;;;;;;20.50;2.95;;;;;;;;;;4974850;28;20027;-79
2021/05/23 08:57:07;;;;;;;7.40;2.65;;;;;;;;;;4978354;28;20030;-81
2021/05/23 08:59:34;;;;;;;5.15;2.30;;;;;;;;;;4979598;28;20050;-76
2021/05/23 09:02:06;;;;;;;11.32;2.40;;;;;;;;;;4973956;28;20387;-82
2021/05/23 09:04:33;;;;;;;7.82;2.55;;;;;;;;;;4988512;28;20035;-78
2021/05/23 09:07:03;;;;;;;7.35;2.13;;;;;;;;;;4981491;28;20140;-81
2021/05/23 09:09:29;;;;;;;5.75;2.17;;;;;;;;;;4979344;28;20026;-80
2021/05/23 09:12:01;;;;;;;5.57;2.45;;;;;;;;;;4988682;28;20086;-79
2021/05/23 09:14:34;;;;;;;9.85;2.92;;;;;;;;;;4982850;28;20022;-75
2021/05/23 09:17:00;;;;;;;;;;;;;;;;;;4981152;28;20026;-76
2021/05/23 09:19:27;;;;;;;4.82;2.20;;;;;;;;;;4977166;28;19926;-80
2021/05/23 09:21:54;;;;;;;6.72;2.47;;;;;;;;;;4962544;28;20026;-79
2021/05/23 09:24:20;;;;;;;4.97;2.40;;;;;;;;;;4981836;28;20061;-81
2021/05/23 09:26:47;;;;;;;5.85;2.38;;;;;;;;;;4976561;28;20037;-80
2021/05/23 09:29:16;;;;;;;12.85;3.00;;;;;;;;;;4983349;28;20026;-80
2021/05/23 09:31:46;;;;;;;4.25;2.67;;;;;;;;;;4961995;28;20133;-83
2021/05/23 09:34:20;;;;;;;9.95;3.28;;;;;;;;;;4982537;28;20035;-80
2021/05/23 09:36:47;;;;;;;9.93;3.63;;;;;;;;;;4971166;28;20023;-85
2021/05/23 09:39:13;;;;;;;6.45;2.25;;;;;;;;;;4978141;28;20436;-82
2021/05/23 09:41:39;;;;;;;6.90;2.55;;;;;;;;;;4978270;28;20026;-82
2021/05/23 09:44:27;;;;;;;3.40;2.47;;;;;;;;;;4978006;28;20015;-74
2021/05/23 09:46:53;;;;;;;8.10;2.55;;;;;;;;;;4972667;28;20023;-82
2021/05/23 09:49:19;;;;;;;5.72;2.58;;;;;;;;;;4971959;28;20041;-80
2021/05/23 09:51:52;;;;;;;7.63;3.00;;;;;;;;;;4976790;28;20081;-82
2021/05/23 09:54:18;;;;;;;6.47;2.88;;;;;;;;;;4975564;28;20491;-80
2021/05/23 09:59:55;;;;;;;;;;;;;;;;;;;;;
2021/05/23 10:02:21;;;;;;;7.55;2.72;;;;;;;;;;5015285;28;20048;-83
2021/05/23 10:04:47;;;;;;;5.47;2.42;;;;;;;;;;4997859;28;20080;-81
2021/05/23 10:07:13;;;;;;;14.50;3.03;;;;;;;;;;4997628;28;20037;-91
2021/05/23 10:09:41;;;;;;;9.13;2.75;;;;;;;;;;5017899;28;20022;-92
2021/05/23 10:12:11;;;;;;;16.20;3.03;;;;;;;;;;5000610;28;20036;-85
2021/05/23 10:14:38;;;;;;;12.48;3.50;;;;;;;;;;4998993;28;20064;-84
2021/05/23 10:17:09;;;;;;;5.55;2.60;;;;;;;;;;5017062;28;20026;-86
2021/05/23 10:19:36;;;;;;;6.60;2.35;;;;;;;;;;5016599;28;20104;-87
2021/05/23 10:22:04;;;;;;;12.23;2.55;;;;;;;;;;5017608;28;20026;-84
2021/05/23 10:24:30;;;;;;;11.05;3.60;;;;;;;;;;5004083;28;20022;-88
2021/05/23 10:26:59;;;;;;;10.25;3.00;;;;;;;;;;5001614;28;20029;-85
2021/05/23 10:29:26;;;;;;;8.45;3.03;;;;;;;;;;4997990;28;20022;-86
2021/05/23 10:32:04;;;;;;;9.35;2.70;;;;;;;;;;4998829;28;20046;-86
2021/05/23 10:34:37;;;;;;;5.30;2.55;;;;;;;;;;4999522;28;20125;-87
2021/05/23 10:37:04;;;;;;;7.75;4.50;;;;;;;;;;4997905;28;20022;-86
2021/05/23 10:39:43;;;;;;;38.53;22.85;;;;;;;;;;4998025;28;20030;-81
2021/05/23 10:42:13;;;;;;;9.55;5.30;;;;;;;;;;4998821;28;20037;-84
2021/05/23 10:44:46;;;;;;;20.23;9.05;;;;;;;;;;5017483;28;20026;-79
2021/05/23 10:47:12;;;;;;;;;;;;;;;;;;5018339;28;20471;-85
2021/05/23 10:49:49;;;;;;;7.30;4.25;;;;;;;;;;4996238;28;19906;-79
2021/05/23 10:52:16;;;;;;;11.20;7.60;;;;;;;;;;5014449;28;20030;-89
2021/05/23 10:55:01;;;;;;;13.30;7.93;;;;;;;;;;4998114;28;20034;-85
2021/05/23 10:57:28;;;;;;;7.75;4.63;;;;;;;;;;4998577;28;20022;-84
2021/05/23 10:59:58;;;;;;;4.38;2.90;;;;;;;;;;4996607;28;20046;-80
2021/05/23 11:02:37;;;;;;;22.30;15.52;;;;;;;;;;4996839;28;20114;-87
2021/05/23 11:05:12;;;;;;;11.63;9.02;;;;;;;;;;5002561;28;20037;-81
2021/05/23 11:07:38;;;;;;;9.15;4.47;;;;;;;;;;4997987;28;20053;-80
2021/05/23 11:10:18;;;;;;;9.38;4.82;;;;;;;;;;5016874;28;20109;-68
2021/05/23 11:12:53;;;;;;;25.38;9.05;;;;;;;;;;5017616;28;20034;-82
2021/05/23 11:15:47;;;;;;;9.77;4.10;;;;;;;;;;5020758;28;20037;-79
2021/05/23 11:18:15;;;;;;;4.63;2.75;;;;;;;;;;4999311;28;20057;-83
2021/05/23 11:20:42;;;;;;;18.05;10.27;;;;;;;;;;5000853;28;20025;-87
2021/05/23 11:23:08;;;;;;;6.57;2.90;;;;;;;;;;5015803;28;20025;-88
2021/05/23 11:25:37;;;;;;;4.20;2.30;;;;;;;;;;5017918;28;20048;-80
2021/05/23 11:28:07;;;;;;;8.32;2.85;;;;;;;;;;4998558;28;20022;-70
2021/05/23 11:30:34;;;;;;;7.53;2.72;;;;;;;;;;5013812;28;20044;-69
2021/05/23 11:33:02;;;;;;;16.65;10.32;;;;;;;;;;5013246;28;20030;-73
2021/05/23 11:35:28;;;;;;;11.82;7.07;;;;;;;;;;5013487;28;20103;-71
2021/05/23 11:37:58;;;;;;;23.23;16.33;;;;;;;;;;5016349;28;20501;-89
2021/05/23 11:40:30;;;;;;;4.63;2.78;;;;;;;;;;4998461;28;20026;-82
2021/05/23 11:43:07;;;;;;;8.02;3.80;;;;;;;;;;5017438;28;20026;-85
2021/05/23 11:45:34;;;;;;;7.15;4.10;;;;;;;;;;5015859;28;20117;-71
2021/05/23 11:48:06;;;;;;;12.07;6.60;;;;;;;;;;5018301;28;20088;-87
2021/05/23 11:50:39;;;;;;;9.48;3.28;;;;;;;;;;5018941;28;20030;-80
2021/05/23 11:53:05;;;;;;;6.55;2.80;;;;;;;;;;5001041;28;20106;-85
2021/05/23 11:55:37;;;;;;;4.93;2.28;;;;;;;;;;5022561;28;20026;-82
2021/05/23 11:58:13;;;;;;;5.47;2.72;;;;;;;;;;5022713;28;20273;-82
2021/05/23 12:00:39;;;;;;;10.13;3.00;;;;;;;;;;5017561;28;20057;-84
2021/05/23 12:03:06;;;;;;;4.25;2.35;;;;;;;;;;5017383;28;20028;-68
2021/05/23 12:05:38;;;;;;;5.55;2.50;;;;;;;;;;5017373;28;20025;-75
2021/05/23 12:08:04;;;;;;;6.53;3.20;;;;;;;;;;5017210;28;20055;-86
2021/05/23 12:10:30;;;;;;;6.07;2.58;;;;;;;;;;5017089;28;20033;-83
2021/05/23 12:12:57;;;;;;;7.93;2.80;;;;;;;;;;5017060;28;20128;-81
2021/05/23 12:15:23;;;;;;;8.88;2.70;;;;;;;;;;5017440;28;20029;-87
2021/05/23 12:17:55;;;;;;;10.55;3.30;;;;;;;;;;5000786;28;20034;-84
2021/05/23 12:20:21;;;;;;;4.63;2.30;;;;;;;;;;5017287;28;20105;-85
2021/05/23 12:22:50;;;;;;;4.38;2.20;;;;;;;;;;5018327;28;20088;-89
2021/05/23 12:25:16;;;;;;;7.90;2.78;;;;;;;;;;5017382;28;20030;-83
2021/05/23 12:27:42;;;;;;;8.57;2.70;;;;;;;;;;5017432;28;20022;-88
2021/05/23 12:30:13;;;;;;;5.65;2.83;;;;;;;;;;5017734;28;20038;-89
2021/05/23 12:33:00;;;;;;;5.75;2.30;;;;;;;;;;5017022;28;20423;-80
2021/05/23 12:35:27;;;;;;;5.45;2.35;;;;;;;;;;5016820;28;20472;-85
2021/05/23 12:37:56;;;;;;;6.78;2.40;;;;;;;;;;5016804;28;20071;-84
2021/05/23 12:40:24;;;;;;;6.68;2.70;;;;;;;;;;5016981;28;20026;-87
2021/05/23 12:42:51;;;;;;;5.07;2.35;;;;;;;;;;5016921;28;20471;-84
2021/05/23 12:45:17;;;;;;;5.55;2.55;;;;;;;;;;5016607;28;20014;-79
2021/05/23 12:47:54;;;;;;;5.78;2.28;;;;;;;;;;5016588;28;20042;-69
2021/05/23 12:50:31;;;;;;;5.72;2.40;;;;;;;;;;5000062;28;20030;-89
2021/05/23 12:52:57;;;;;;;6.00;2.50;;;;;;;;;;5017315;28;20108;-90
2021/05/23 12:55:24;;;;;;;3.50;2.20;;;;;;;;;;5016707;28;20382;-88
2021/05/23 12:57:51;;;;;;;6.20;2.50;;;;;;;;;;5016743;28;20024;-86
2021/05/23 13:00:18;;;;;;;5.95;2.58;;;;;;;;;;5015316;28;20106;-82
2021/05/23 13:02:44;;;;;;;3.90;2.30;;;;;;;;;;5016080;28;20069;-80
2021/05/23 13:05:15;;;;;;;6.07;2.53;;;;;;;;;;5016359;28;20033;-86
2021/05/23 13:07:41;;;;;;;6.78;2.50;;;;;;;;;;5015324;28;20448;-75
2021/05/23 13:10:13;;;;;;;4.22;2.30;;;;;;;;;;4998319;28;20173;-87
2021/05/23 13:12:39;;;;;;;5.28;2.60;;;;;;;;;;5016011;28;20462;-78
2021/05/23 13:15:06;;;;;;;7.10;3.08;;;;;;;;;;5016066;28;20017;-82
2021/05/23 13:17:35;;;;;;;5.80;2.50;;;;;;;;;;5016407;28;20113;-85
2021/05/23 13:20:03;;;;;;;5.93;2.40;;;;;;;;;;5015789;28;20480;-79
2021/05/23 13:22:30;;;;;;;4.47;2.58;;;;;;;;;;5016199;28;20472;-87
2021/05/23 13:24:56;;;;;;;4.22;2.20;;;;;;;;;;5015934;28;20018;-88
2021/05/23 13:27:22;;;;;;;5.18;2.33;;;;;;;;;;5015924;28;20029;-84
2021/05/23 13:29:59;;;;;;;5.75;2.85;;;;;;;;;;5016311;28;20387;-87
2021/05/23 13:32:25;;;;;;;5.13;2.50;;;;;;;;;;5015643;28;20040;-82
2021/05/23 13:34:51;;;;;;;5.47;2.58;;;;;;;;;;5015896;28;20061;-70
2021/05/23 13:37:17;;;;;;;4.63;2.58;;;;;;;;;;5015760;28;20026;-80
2021/05/23 13:39:43;;;;;;;6.93;2.60;;;;;;;;;;5015822;28;20056;-86
2021/05/23 13:42:10;;;;;;;5.72;2.60;;;;;;;;;;5015417;28;20068;-83
2021/05/23 13:44:36;;;;;;;9.02;2.90;;;;;;;;;;5017193;28;20061;-67
2021/05/23 13:47:02;;;;;;;5.97;2.67;;;;;;;;;;5015405;28;20030;-79
2021/05/23 13:49:28;;;;;;;3.70;2.45;;;;;;;;;;5015610;28;20080;-81
2021/05/23 13:51:54;;;;;;;7.85;2.60;;;;;;;;;;5015164;28;20036;-83
2021/05/23 13:54:22;;;;;;;6.05;2.53;;;;;;;;;;5017003;28;20025;-83
2021/05/23 13:56:48;;;;;;;3.35;2.17;;;;;;;;;;5017880;28;20042;-85
2021/05/23 13:59:14;;;;;;;5.63;2.58;;;;;;;;;;5015622;28;20511;-83
2021/05/23 14:01:47;;;;;;;4.70;2.30;;;;;;;;;;5014939;28;20069;-86
2021/05/23 14:04:14;;;;;;;5.55;2.42;;;;;;;;;;5015561;28;20044;-89
2021/05/23 14:06:40;;;;;;;4.70;2.30;;;;;;;;;;5015146;28;20101;-89
2021/05/23 14:09:07;;;;;;;6.03;2.40;;;;;;;;;;5015571;28;20022;-90
2021/05/23 14:11:33;;;;;;;8.02;2.60;;;;;;;;;;4998181;28;20030;-70
2021/05/23 14:13:59;;;;;;;8.13;3.97;;;;;;;;;;5015384;28;20434;-88
2021/05/23 14:16:26;;;;;;;7.80;2.83;;;;;;;;;;5015786;28;20060;-87
2021/05/23 14:18:52;;;;;;;6.78;3.85;;;;;;;;;;5015839;28;20041;-81
2021/05/23 14:21:18;;;;;;;5.47;2.67;;;;;;;;;;5015088;28;20053;-82
2021/05/23 14:23:44;;;;;;;8.02;2.60;;;;;;;;;;5014933;28;20033;-75
2021/05/23 14:26:10;;;;;;;9.88;3.00;;;;;;;;;;5015420;28;20372;-89
2021/05/23 14:28:37;;;;;;;9.25;4.50;;;;;;;;;;5015898;28;20104;-87
2021/05/23 14:31:03;;;;;;;9.32;3.78;;;;;;;;;;5014779;28;20097;-78
2021/05/23 14:33:29;;;;;;;8.50;6.20;;;;;;;;;;5014720;28;20095;-83
2021/05/23 14:35:55;;;;;;;7.38;4.20;;;;;;;;;;5014699;28;20029;-82
2021/05/23 14:38:22;;;;;;;7.32;3.30;;;;;;;;;;5015630;28;20018;-88
2021/05/23 14:40:49;;;;;;;4.60;2.67;;;;;;;;;;5015161;28;20499;-88
2021/05/23 14:43:15;;;;;;;7.47;2.90;;;;;;;;;;5014363;28;20030;-79
2021/05/23 14:45:41;;;;;;;5.45;3.00;;;;;;;;;;5014837;28;20053;-88
2021/05/23 14:48:08;;;;;;;8.65;3.22;;;;;;;;;;5015499;28;20018;-88
2021/05/23 14:50:36;;;;;;;8.10;2.50;;;;;;;;;;4997520;28;20475;-68